createdAt,value
2019-04-10T00:01:44.593Z,7.40
2019-04-10T00:03:50.439Z,7.40
2019-04-10T00:05:56.385Z,7.30
2019-04-10T00:08:01.957Z,7.30
2019-04-10T00:10:07.801Z,7.20
2019-04-10T00:12:13.624Z,7.10
2019-04-10T00:14:19.241Z,7.20
2019-04-10T00:16:24.780Z,7.10
2019-04-10T00:18:30.319Z,7.10
2019-04-10T00:20:36.501Z,7.10
2019-04-10T00:22:42.327Z,7.10
2019-04-10T00:24:48.946Z,7.20
2019-04-10T00:26:54.526Z,7.10
2019-04-10T00:29:00.240Z,6.90
2019-04-10T00:31:05.924Z,7.00
2019-04-10T00:33:12.313Z,7.10
2019-04-10T00:35:17.820Z,7.00
2019-04-10T00:37:28.130Z,7.10
2019-04-10T00:39:30.687Z,7.00
2019-04-10T00:41:36.529Z,7.00
2019-04-10T00:43:43.358Z,7.00
2019-04-10T00:45:49.999Z,7.00
2019-04-10T00:47:55.518Z,6.90
2019-04-10T00:50:02.401Z,6.90
2019-04-10T00:52:09.873Z,6.90
2019-04-10T00:54:16.082Z,6.70
2019-04-10T00:56:21.750Z,6.80
2019-04-10T00:58:27.996Z,6.80
2019-04-10T01:00:36.305Z,6.70
2019-04-10T01:02:40.844Z,6.70
2019-04-10T01:04:46.762Z,6.70
2019-04-10T01:06:53.295Z,6.80
2019-04-10T01:08:59.261Z,6.80
2019-04-10T01:11:04.921Z,6.80
2019-04-10T01:13:10.466Z,6.80
2019-04-10T01:15:16.266Z,6.80
2019-04-10T01:17:22.261Z,6.90
2019-04-10T01:19:28.080Z,6.80
2019-04-10T01:21:34.588Z,6.80
2019-04-10T01:23:41.337Z,6.80
2019-04-10T01:25:47.032Z,6.70
2019-04-10T01:27:52.574Z,6.80
2019-04-10T01:29:58.087Z,6.80
2019-04-10T01:32:03.702Z,6.70
2019-04-10T01:34:10.212Z,6.80
2019-04-10T01:36:15.726Z,6.80
2019-04-10T01:38:21.816Z,6.80
2019-04-10T01:40:27.472Z,6.80
2019-04-10T01:42:32.992Z,6.70
2019-04-10T01:44:38.622Z,6.70
2019-04-10T01:46:44.147Z,6.60
2019-04-10T01:48:49.667Z,6.70
2019-04-10T01:50:55.187Z,6.50
2019-04-10T01:53:01.792Z,6.60
2019-04-10T01:55:21.356Z,6.50
2019-04-10T01:57:16.682Z,6.50
2019-04-10T01:59:23.688Z,6.50
2019-04-10T02:01:30.841Z,6.60
2019-04-10T02:03:36.427Z,6.60
2019-04-10T02:05:42.846Z,6.60
2019-04-10T02:08:01.308Z,6.60
2019-04-10T02:09:56.678Z,6.60
2019-04-10T02:12:02.211Z,6.60
2019-04-10T02:14:07.854Z,6.60
2019-04-10T02:16:13.396Z,6.60
2019-04-10T02:18:19.414Z,6.60
2019-04-10T02:20:25.029Z,6.70
2019-04-10T02:22:30.840Z,6.70
2019-04-10T02:24:36.388Z,6.70
2019-04-10T02:26:41.905Z,6.70
2019-04-10T02:28:47.424Z,6.70
2019-04-10T02:30:54.095Z,6.60
2019-04-10T02:33:00.103Z,6.60
2019-04-10T02:35:10.545Z,6.60
2019-04-10T02:37:15.262Z,6.50
2019-04-10T02:39:31.317Z,6.50
2019-04-10T02:41:28.139Z,6.40
2019-04-10T02:43:33.758Z,6.50
2019-04-10T02:45:41.947Z,6.50
2019-04-10T02:47:47.510Z,6.50
2019-04-10T02:49:54.588Z,6.40
2019-04-10T02:52:00.232Z,6.40
2019-04-10T02:54:05.864Z,6.30
2019-04-10T02:56:11.792Z,6.30
2019-04-10T02:58:18.761Z,6.30
2019-04-10T03:00:26.430Z,6.30
2019-04-10T03:02:33.462Z,6.30
2019-04-10T03:04:40.470Z,6.30
2019-04-10T03:06:47.140Z,6.20
2019-04-10T03:09:07.888Z,6.20
2019-04-10T03:11:03.981Z,6.20
2019-04-10T03:13:09.014Z,6.20
2019-04-10T03:15:16.995Z,6.20
2019-04-10T03:17:22.421Z,6.20
2019-04-10T03:19:27.966Z,6.10
2019-04-10T03:21:33.467Z,6.10
2019-04-10T03:23:39.791Z,6.20
2019-04-10T03:25:45.534Z,6.10
2019-04-10T03:27:51.081Z,6.00
2019-04-10T03:29:56.584Z,6.00
2019-04-10T03:32:04.586Z,6.00
2019-04-10T03:34:16.837Z,6.00
2019-04-10T03:36:23.223Z,5.90
2019-04-10T03:38:29.905Z,5.90
2019-04-10T03:40:35.668Z,5.90
2019-04-10T03:42:41.332Z,5.80
2019-04-10T03:44:47.149Z,6.00
2019-04-10T03:46:53.768Z,5.90
2019-04-10T03:48:59.380Z,5.90
2019-04-10T03:51:05.993Z,5.80
2019-04-10T03:53:11.535Z,5.70
2019-04-10T03:55:17.066Z,5.80
2019-04-10T03:57:22.666Z,5.80
2019-04-10T03:59:28.539Z,5.80
2019-04-10T04:01:35.316Z,5.70
2019-04-10T04:03:40.884Z,5.60
2019-04-10T04:05:46.750Z,5.60
2019-04-10T04:07:52.355Z,5.50
2019-04-10T04:09:57.877Z,5.50
2019-04-10T04:12:04.416Z,5.60
2019-04-10T04:14:10.305Z,5.60
2019-04-10T04:16:17.065Z,5.60
2019-04-10T04:18:22.655Z,5.50
2019-04-10T04:20:28.687Z,5.40
2019-04-10T04:22:34.207Z,5.40
2019-04-10T04:24:40.033Z,5.50
2019-04-10T04:26:46.477Z,5.50
2019-04-10T04:28:52.186Z,5.50
2019-04-10T04:30:58.827Z,5.50
2019-04-10T04:33:04.761Z,5.40
2019-04-10T04:35:11.196Z,5.50
2019-04-10T04:37:16.764Z,5.50
2019-04-10T04:39:26.759Z,5.60
2019-04-10T04:41:29.567Z,5.50
2019-04-10T04:43:35.068Z,5.50
2019-04-10T04:45:40.609Z,5.50
2019-04-10T04:47:48.089Z,5.50
2019-04-10T04:49:54.396Z,5.60
2019-04-10T04:52:00.263Z,5.50
2019-04-10T04:54:06.711Z,5.60
2019-04-10T04:56:12.493Z,5.60
2019-04-10T04:58:18.142Z,5.60
2019-04-10T05:00:23.706Z,5.70
2019-04-10T05:02:30.215Z,5.70
2019-04-10T05:04:35.922Z,5.70
2019-04-10T05:06:41.746Z,5.70
2019-04-10T05:08:48.496Z,5.60
2019-04-10T05:10:54.124Z,5.50
2019-04-10T05:12:59.937Z,5.60
2019-04-10T05:15:07.094Z,5.60
2019-04-10T05:17:15.139Z,5.70
2019-04-10T05:19:19.744Z,5.70
2019-04-10T05:21:25.572Z,5.80
2019-04-10T05:23:31.122Z,5.90
2019-04-10T05:25:37.747Z,5.90
2019-04-10T05:27:43.517Z,5.90
2019-04-10T05:29:49.029Z,5.90
2019-04-10T05:31:54.547Z,5.90
2019-04-10T05:34:00.867Z,6.00
2019-04-10T05:36:06.945Z,6.10
2019-04-10T05:38:12.627Z,6.00
2019-04-10T05:40:18.153Z,6.00
2019-04-10T05:42:24.705Z,6.00
2019-04-10T05:44:30.376Z,6.00
2019-04-10T05:46:36.745Z,6.20
2019-04-10T05:48:42.342Z,6.50
2019-04-10T05:50:57.900Z,6.70
2019-04-10T05:52:55.916Z,6.90
2019-04-10T05:55:02.319Z,7.10
2019-04-10T05:57:08.344Z,7.10
2019-04-10T05:59:14.646Z,7.10
2019-04-10T06:01:31.345Z,7.10
2019-04-10T06:03:28.231Z,7.30
2019-04-10T06:05:34.190Z,7.40
2019-04-10T06:07:39.848Z,7.50
2019-04-10T06:09:54.098Z,7.60
2019-04-10T06:11:53.164Z,7.70
2019-04-10T06:13:59.104Z,7.90
2019-04-10T06:16:05.656Z,8.30
2019-04-10T06:18:12.524Z,8.60
2019-04-10T06:20:18.477Z,8.90
2019-04-10T06:22:24.865Z,9.00
2019-04-10T06:24:30.400Z,9.10
2019-04-10T06:26:35.952Z,9.00
2019-04-10T06:28:42.219Z,8.90
2019-04-10T06:30:48.078Z,9.00
2019-04-10T06:32:53.916Z,9.20
2019-04-10T06:34:59.615Z,9.60
2019-04-10T06:37:06.154Z,9.60
2019-04-10T06:39:12.878Z,9.80
2019-04-10T06:41:19.227Z,9.70
2019-04-10T06:43:25.215Z,9.90
2019-04-10T06:45:31.590Z,10.30
2019-04-10T06:47:38.160Z,10.10
2019-04-10T06:49:43.773Z,9.90
2019-04-10T06:51:49.484Z,9.90
2019-04-10T06:54:02.584Z,10.20
2019-04-10T06:56:02.904Z,10.30
2019-04-10T06:58:09.635Z,10.40
2019-04-10T07:00:18.468Z,10.80
2019-04-10T07:02:28.266Z,10.80
2019-04-10T07:04:43.207Z,10.80
2019-04-10T07:06:50.531Z,10.60
2019-04-10T07:08:48.822Z,10.70
2019-04-10T07:11:00.610Z,10.70
2019-04-10T07:13:05.170Z,11.10
2019-04-10T07:15:08.697Z,11.30
2019-04-10T07:17:14.605Z,11.30
2019-04-10T07:19:34.227Z,11.10
2019-04-10T07:21:52.249Z,11.00
2019-04-10T07:24:03.258Z,11.10
2019-04-10T07:26:06.071Z,11.60
2019-04-10T07:28:12.547Z,11.80
2019-04-10T07:30:19.453Z,11.70
2019-04-10T07:32:25.701Z,11.70
2019-04-10T07:34:32.036Z,11.10
2019-04-10T07:36:41.507Z,11.20
2019-04-10T07:38:44.939Z,11.70
2019-04-10T07:40:51.278Z,11.80
2019-04-10T07:42:56.839Z,11.90
2019-04-10T07:45:02.436Z,11.90
2019-04-10T07:47:08.028Z,11.80
2019-04-10T07:49:13.589Z,11.90
2019-04-10T07:51:19.108Z,11.80
2019-04-10T07:53:24.696Z,12.00
2019-04-10T07:55:30.928Z,11.70
2019-04-10T07:57:36.560Z,11.80
2019-04-10T07:59:43.113Z,11.80
2019-04-10T08:01:49.502Z,12.00
2019-04-10T08:03:55.623Z,12.20
2019-04-10T08:06:02.308Z,12.10
2019-04-10T08:08:08.676Z,12.30
2019-04-10T08:10:15.543Z,12.70
2019-04-10T08:12:21.399Z,12.90
2019-04-10T08:14:27.450Z,13.00
2019-04-10T08:16:34.921Z,13.20
2019-04-10T08:18:40.584Z,12.90
2019-04-10T08:20:46.699Z,12.70
2019-04-10T08:22:53.297Z,12.60
2019-04-10T08:25:00.073Z,12.40
2019-04-10T08:27:05.707Z,12.50
2019-04-10T08:29:12.053Z,12.50
2019-04-10T08:31:17.596Z,12.40
2019-04-10T08:33:23.466Z,12.50
2019-04-10T08:35:29.389Z,12.40
2019-04-10T08:37:35.059Z,12.80
2019-04-10T08:39:44.153Z,12.80
2019-04-10T08:41:48.099Z,12.90
2019-04-10T08:43:54.476Z,12.90
2019-04-10T08:46:01.808Z,12.80
2019-04-10T08:48:07.995Z,12.50
2019-04-10T08:50:13.937Z,12.60
2019-04-10T08:52:19.961Z,12.90
2019-04-10T08:54:25.915Z,13.20
2019-04-10T08:56:32.326Z,13.40
2019-04-10T08:58:39.075Z,13.50
2019-04-10T09:00:44.918Z,13.60
2019-04-10T09:02:50.561Z,13.50
2019-04-10T09:04:57.261Z,13.50
2019-04-10T09:07:05.008Z,13.60
2019-04-10T09:09:10.091Z,13.80
2019-04-10T09:11:23.058Z,13.90
2019-04-10T09:13:22.955Z,13.70
2019-04-10T09:15:29.828Z,13.50
2019-04-10T09:17:35.582Z,13.30
2019-04-10T09:19:41.051Z,13.60
2019-04-10T09:21:47.809Z,13.80
2019-04-10T09:23:56.204Z,13.60
2019-04-10T09:26:01.814Z,13.70
2019-04-10T09:28:08.507Z,13.90
2019-04-10T09:30:16.183Z,13.80
2019-04-10T09:32:22.293Z,13.90
2019-04-10T09:34:27.874Z,13.90
2019-04-10T09:36:33.427Z,13.60
2019-04-10T09:38:39.044Z,13.30
2019-04-10T09:40:44.748Z,13.10
2019-04-10T09:42:50.256Z,13.00
2019-04-10T09:44:56.921Z,13.20
2019-04-10T09:47:02.651Z,12.90
2019-04-10T09:49:08.839Z,12.70
2019-04-10T09:51:16.815Z,12.80
2019-04-10T09:53:21.820Z,12.80
2019-04-10T09:55:27.715Z,12.90
2019-04-10T09:57:34.518Z,13.00
2019-04-10T09:59:41.260Z,12.80
2019-04-10T10:01:47.151Z,12.70
2019-04-10T10:03:52.808Z,12.50
2019-04-10T10:06:00.136Z,12.20
2019-04-10T10:08:06.488Z,12.20
2019-04-10T10:10:12.768Z,11.90
2019-04-10T10:12:18.430Z,11.70
2019-04-10T10:14:23.957Z,11.80
2019-04-10T10:16:30.335Z,11.60
2019-04-10T10:18:37.099Z,11.60
2019-04-10T10:20:43.893Z,11.60
2019-04-10T10:22:49.644Z,11.70
2019-04-10T10:24:56.266Z,11.80
2019-04-10T10:27:02.348Z,11.90
2019-04-10T10:29:07.944Z,11.90
2019-04-10T10:31:13.735Z,11.90
2019-04-10T10:33:19.472Z,11.90
2019-04-10T10:35:36.888Z,12.00
2019-04-10T10:37:42.880Z,11.90
2019-04-10T10:39:48.548Z,12.00
2019-04-10T10:41:54.440Z,12.00
2019-04-10T10:44:00.611Z,11.80
2019-04-10T10:46:07.217Z,11.90
2019-04-10T10:48:13.712Z,11.70
2019-04-10T10:50:19.421Z,11.80
2019-04-10T10:52:25.727Z,11.80
2019-04-10T10:54:32.694Z,12.00
2019-04-10T10:56:38.280Z,12.00
2019-04-10T10:58:43.990Z,11.90
2019-04-10T11:00:50.127Z,11.80
2019-04-10T11:02:58.042Z,11.90
2019-04-10T11:05:06.858Z,12.00
2019-04-10T11:07:11.110Z,12.00
2019-04-10T11:09:18.196Z,12.20
2019-04-10T11:11:24.109Z,12.10
2019-04-10T11:13:30.769Z,12.10
2019-04-10T11:15:40.894Z,12.20
2019-04-10T11:17:44.703Z,12.30
2019-04-10T11:19:51.378Z,12.20
2019-04-10T11:21:56.981Z,12.10
2019-04-10T11:24:03.077Z,12.10
2019-04-10T11:26:11.057Z,12.20
2019-04-10T11:28:18.538Z,12.20
2019-04-10T11:30:24.905Z,12.30
2019-04-10T11:32:30.520Z,12.30
2019-04-10T11:34:36.073Z,12.20
2019-04-10T11:36:42.599Z,12.10
2019-04-10T11:38:49.295Z,12.10
2019-04-10T11:40:57.736Z,12.00
2019-04-10T11:43:04.778Z,12.00
2019-04-10T11:45:10.752Z,11.90
2019-04-10T11:47:17.338Z,11.80
2019-04-10T11:49:23.696Z,11.90
2019-04-10T11:51:31.550Z,11.90
2019-04-10T11:53:39.877Z,12.10
2019-04-10T11:55:50.127Z,12.20
2019-04-10T11:57:51.579Z,12.20
2019-04-10T12:00:00.789Z,12.20
2019-04-10T12:02:06.651Z,12.20
2019-04-10T12:04:11.751Z,12.30
2019-04-10T12:06:20.523Z,12.30
2019-04-10T12:08:44.960Z,12.00
2019-04-10T12:12:38.781Z,11.90
2019-04-10T12:14:44.336Z,12.00
2019-04-10T12:16:49.872Z,12.00
2019-04-10T12:18:56.304Z,12.00
2019-04-10T12:21:02.924Z,12.00
2019-04-10T12:23:08.607Z,12.10
2019-04-10T12:25:15.192Z,12.30
2019-04-10T12:27:20.928Z,12.30
2019-04-10T12:29:26.753Z,12.30
2019-04-10T12:31:33.243Z,12.10
2019-04-10T12:33:39.665Z,12.00
2019-04-10T12:35:45.760Z,11.90
2019-04-10T12:37:59.467Z,11.70
2019-04-10T12:39:58.485Z,11.80
2019-04-10T12:42:04.500Z,11.70
2019-04-10T12:44:10.028Z,11.70
2019-04-10T12:46:15.562Z,11.70
2019-04-10T12:48:41.069Z,11.60
2019-04-10T12:50:47.522Z,11.60
2019-04-10T12:52:53.020Z,11.70
2019-04-10T12:54:59.531Z,11.70
2019-04-10T12:57:05.089Z,11.70
2019-04-10T12:59:11.130Z,11.80
2019-04-10T13:01:18.008Z,11.80
2019-04-10T13:03:23.517Z,11.90
2019-04-10T13:05:29.314Z,11.90
2019-04-10T13:07:35.902Z,11.90
2019-04-10T13:09:42.145Z,11.80
2019-04-10T13:11:48.888Z,12.00
2019-04-10T13:13:54.697Z,12.10
2019-04-10T13:16:01.425Z,12.10
2019-04-10T13:18:07.970Z,12.10
2019-04-10T13:20:14.224Z,11.90
2019-04-10T13:22:20.130Z,11.80
2019-04-10T13:24:25.769Z,11.80
2019-04-10T13:26:32.359Z,11.80
2019-04-10T13:28:37.837Z,11.80
2019-04-10T13:30:49.712Z,11.90
2019-04-10T13:32:50.537Z,11.80
2019-04-10T13:34:56.081Z,11.60
2019-04-10T13:37:02.692Z,11.60
2019-04-10T13:39:10.694Z,11.70
2019-04-10T13:41:16.475Z,11.70
2019-04-10T13:43:22.187Z,11.70
2019-04-10T13:45:27.707Z,11.70
2019-04-10T13:47:34.388Z,11.60
2019-04-10T13:49:40.075Z,11.50
2019-04-10T13:51:45.725Z,11.50
2019-04-10T13:53:52.375Z,11.50
2019-04-10T13:55:59.045Z,11.50
2019-04-10T13:58:04.694Z,11.50
2019-04-10T14:00:15.679Z,11.60
2019-04-10T14:04:55.519Z,11.70
2019-04-10T14:07:01.922Z,11.50
2019-04-10T14:09:38.008Z,11.50
2019-04-10T14:11:35.149Z,11.40
2019-04-10T14:13:42.116Z,11.40
2019-04-10T14:15:48.435Z,11.40
2019-04-10T14:17:54.219Z,11.40
2019-04-10T14:20:00.123Z,11.30
2019-04-10T14:22:05.737Z,11.40
2019-04-10T14:24:11.985Z,11.40
2019-04-10T14:26:20.269Z,11.40
2019-04-10T14:28:27.503Z,11.50
2019-04-10T14:30:35.630Z,11.60
2019-04-10T14:33:00.874Z,11.60
2019-04-10T14:35:09.636Z,11.70
2019-04-10T14:37:15.651Z,11.60
2019-04-10T14:39:22.598Z,11.60
2019-04-10T14:41:29.509Z,11.50
2019-04-10T14:43:35.143Z,11.60
2019-04-10T14:45:41.569Z,11.50
2019-04-10T14:47:47.625Z,11.50
2019-04-10T14:49:54.887Z,11.40
2019-04-10T14:52:00.988Z,11.30
2019-04-10T14:54:07.772Z,11.30
2019-04-10T14:56:13.720Z,11.40
2019-04-10T14:58:22.742Z,11.40
2019-04-10T15:00:30.943Z,11.30
2019-04-10T15:02:36.932Z,11.30
2019-04-10T15:04:43.603Z,11.20
2019-04-10T15:06:50.048Z,11.20
2019-04-10T15:08:55.677Z,11.20
2019-04-10T15:11:02.360Z,11.20
2019-04-10T15:13:13.687Z,11.20
2019-04-10T15:15:16.404Z,11.30
2019-04-10T15:17:23.121Z,11.30
2019-04-10T15:19:29.011Z,11.20
2019-04-10T15:21:34.729Z,11.30
2019-04-10T15:23:40.328Z,11.40
2019-04-10T15:25:47.025Z,11.30
2019-04-10T15:27:53.658Z,11.40
2019-04-10T15:29:59.268Z,11.30
2019-04-10T15:32:06.343Z,11.20
2019-04-10T15:34:11.995Z,11.20
2019-04-10T15:36:17.930Z,11.30
2019-04-10T15:38:24.146Z,11.30
2019-04-10T15:40:30.321Z,11.20
2019-04-10T15:42:37.211Z,11.20
2019-04-10T15:44:44.124Z,11.20
2019-04-10T15:46:49.653Z,11.20
2019-04-10T15:48:56.032Z,11.10
2019-04-10T15:51:01.586Z,11.10
2019-04-10T15:53:07.581Z,11.00
2019-04-10T15:55:13.403Z,11.00
2019-04-10T15:57:20.016Z,10.90
2019-04-10T15:59:25.545Z,10.90
2019-04-10T16:01:31.169Z,10.90
2019-04-10T16:03:36.833Z,10.90
2019-04-10T16:05:42.501Z,11.00
2019-04-10T16:07:49.709Z,10.90
2019-04-10T16:09:57.977Z,10.90
2019-04-10T16:12:06.098Z,10.90
2019-04-10T16:14:20.837Z,10.80
2019-04-10T16:16:23.425Z,10.70
2019-04-10T16:18:30.541Z,10.70
2019-04-10T16:20:36.903Z,10.60
2019-04-10T16:22:46.868Z,10.50
2019-04-10T16:24:53.356Z,10.50
2019-04-10T16:26:59.982Z,10.60
2019-04-10T16:29:05.687Z,10.50
2019-04-10T16:31:11.232Z,10.50
2019-04-10T16:33:17.145Z,10.50
2019-04-10T16:35:23.153Z,10.50
2019-04-10T16:37:28.708Z,10.40
2019-04-10T16:39:34.317Z,10.40
2019-04-10T16:41:39.913Z,10.40
2019-04-10T16:43:46.408Z,10.30
2019-04-10T16:45:53.020Z,10.40
2019-04-10T16:47:58.779Z,10.40
2019-04-10T16:50:07.020Z,10.40
2019-04-10T16:52:12.581Z,10.40
2019-04-10T16:54:20.049Z,10.40
2019-04-10T16:56:25.480Z,10.40
2019-04-10T16:58:31.913Z,10.30
2019-04-10T17:00:37.805Z,10.30
2019-04-10T17:02:44.353Z,10.30
2019-04-10T17:04:52.091Z,10.30
2019-04-10T17:06:58.754Z,10.30
2019-04-10T17:09:08.195Z,10.30
2019-04-10T17:11:14.668Z,10.30
2019-04-10T17:13:20.331Z,10.20
2019-04-10T17:15:26.087Z,10.20
2019-04-10T17:17:32.554Z,10.30
2019-04-10T17:19:46.637Z,10.20
2019-04-10T17:21:46.633Z,10.30
2019-04-10T17:23:53.235Z,10.30
2019-04-10T17:25:58.899Z,10.20
2019-04-10T17:28:04.779Z,10.20
2019-04-10T17:30:11.644Z,10.20
2019-04-10T17:32:17.364Z,10.20
2019-04-10T17:34:23.004Z,10.30
2019-04-10T17:36:29.341Z,10.30
2019-04-10T17:38:36.441Z,10.20
2019-04-10T17:40:48.172Z,10.30
2019-04-10T17:42:49.456Z,10.30
2019-04-10T17:44:56.192Z,10.40
2019-04-10T17:47:01.974Z,10.30
2019-04-10T17:49:08.810Z,10.30
2019-04-10T17:51:14.818Z,10.20
2019-04-10T17:53:21.119Z,10.20
2019-04-10T17:55:27.392Z,10.20
2019-04-10T17:57:38.099Z,10.20
2019-04-10T17:59:40.701Z,10.10
2019-04-10T18:01:47.219Z,10.10
2019-04-10T18:03:57.243Z,10.10
2019-04-10T18:06:01.019Z,10.10
2019-04-10T18:08:08.318Z,10.10
2019-04-10T18:10:14.090Z,10.10
2019-04-10T18:12:20.028Z,10.00
2019-04-10T18:14:25.579Z,10.00
2019-04-10T18:16:31.121Z,10.10
2019-04-10T18:18:37.855Z,10.00
2019-04-10T18:20:44.428Z,10.00
2019-04-10T18:22:51.860Z,9.90
2019-04-10T18:24:57.773Z,10.00
2019-04-10T18:27:03.785Z,9.90
2019-04-10T18:29:10.006Z,9.90
2019-04-10T18:31:16.568Z,9.80
2019-04-10T18:33:24.466Z,9.80
2019-04-10T18:35:30.851Z,9.80
2019-04-10T18:37:37.219Z,9.70
2019-04-10T18:39:43.088Z,9.70
2019-04-10T18:41:48.704Z,9.70
2019-04-10T18:43:54.226Z,9.80
2019-04-10T18:46:08.651Z,9.70
2019-04-10T18:48:06.967Z,9.70
2019-04-10T18:50:12.998Z,9.70
2019-04-10T18:52:19.198Z,9.70
2019-04-10T18:54:27.730Z,9.80
2019-04-10T18:56:33.475Z,9.80
2019-04-10T18:58:40.649Z,9.70
2019-04-10T19:01:03.660Z,9.70
2019-04-10T19:03:27.637Z,9.70
2019-04-10T19:05:36.778Z,9.80
2019-04-10T19:07:42.788Z,9.70
2019-04-10T19:09:49.077Z,9.70
2019-04-10T19:11:54.869Z,9.80
2019-04-10T19:14:00.396Z,9.70
2019-04-10T19:16:05.996Z,9.80
2019-04-10T19:18:11.541Z,9.60
2019-04-10T19:20:17.988Z,9.70
2019-04-10T19:22:24.798Z,9.70
2019-04-10T19:24:30.656Z,9.70
2019-04-10T19:26:36.176Z,9.60
2019-04-10T19:28:44.408Z,9.60
2019-04-10T19:30:53.272Z,9.50
2019-04-10T19:32:59.542Z,9.40
2019-04-10T19:35:07.223Z,9.30
2019-04-10T19:37:12.769Z,9.40
2019-04-10T19:39:18.293Z,9.40
2019-04-10T19:41:30.454Z,9.50
2019-04-10T19:43:32.111Z,9.40
2019-04-10T19:45:38.193Z,9.30
2019-04-10T19:47:44.324Z,9.30
2019-04-10T19:49:49.869Z,9.30
2019-04-10T19:51:56.005Z,9.30
2019-04-10T19:54:04.520Z,9.30
2019-04-10T19:56:09.920Z,9.20
2019-04-10T19:58:17.588Z,9.20
2019-04-10T20:00:24.901Z,9.10
2019-04-10T20:02:31.034Z,9.20
2019-04-10T20:04:36.906Z,9.00
2019-04-10T20:06:42.713Z,9.00
2019-04-10T20:08:48.262Z,9.00
2019-04-10T20:10:54.729Z,9.00
2019-04-10T20:13:01.387Z,9.00
2019-04-10T20:15:08.608Z,9.00
2019-04-10T20:17:14.191Z,8.90
2019-04-10T20:19:19.714Z,8.80
2019-04-10T20:21:25.987Z,8.80
2019-04-10T20:23:32.080Z,8.80
2019-04-10T20:25:38.721Z,8.70
2019-04-10T20:27:44.573Z,8.70
2019-04-10T20:29:51.065Z,8.70
2019-04-10T20:31:57.936Z,8.80
2019-04-10T20:34:03.750Z,8.70
2019-04-10T20:36:09.339Z,8.80
2019-04-10T20:38:15.551Z,8.80
2019-04-10T20:40:22.129Z,8.80
2019-04-10T20:42:27.736Z,8.80
2019-04-10T20:44:34.453Z,8.80
2019-04-10T20:46:40.270Z,8.80
2019-04-10T20:48:46.740Z,8.70
2019-04-10T20:50:52.365Z,8.60
2019-04-10T20:52:57.871Z,8.60
2019-04-10T20:55:04.255Z,8.40
2019-04-10T20:57:10.763Z,8.40
2019-04-10T20:59:17.605Z,8.40
2019-04-10T21:01:24.432Z,8.40
2019-04-10T21:03:30.228Z,8.40
2019-04-10T21:05:35.934Z,8.30
2019-04-10T21:07:41.394Z,8.30
2019-04-10T21:09:48.058Z,8.30
2019-04-10T21:12:03.000Z,8.20
2019-04-10T21:14:00.888Z,8.20
2019-04-10T21:16:07.115Z,8.00
2019-04-10T21:18:13.187Z,8.10
2019-04-10T21:20:18.747Z,8.00
2019-04-10T21:22:24.435Z,7.90
2019-04-10T21:24:30.130Z,7.90
2019-04-10T21:26:36.695Z,7.90
2019-04-10T21:28:42.279Z,7.80
2019-04-10T21:31:01.126Z,7.90
2019-04-10T21:33:12.179Z,7.90
2019-04-10T21:35:19.344Z,7.90
2019-04-10T21:37:24.873Z,7.90
2019-04-10T21:39:30.393Z,7.90
2019-04-10T21:41:36.877Z,7.90
2019-04-10T21:43:43.178Z,7.90
2019-04-10T21:45:49.682Z,7.90
2019-04-10T21:47:55.456Z,7.80
2019-04-10T21:50:00.991Z,7.70
2019-04-10T21:52:07.657Z,7.70
2019-04-10T21:54:14.122Z,7.70
2019-04-10T21:56:20.269Z,7.80
2019-04-10T21:58:25.864Z,7.70
2019-04-10T22:00:36.718Z,7.70
2019-04-10T22:02:45.024Z,7.70
2019-04-10T22:04:51.797Z,7.70
2019-04-10T22:07:05.128Z,7.70
2019-04-10T22:09:12.712Z,7.60
2019-04-10T22:11:21.265Z,7.60
2019-04-10T22:13:27.911Z,7.60
2019-04-10T22:15:37.691Z,7.60
2019-04-10T22:17:43.286Z,7.60
2019-04-10T22:19:50.750Z,7.60
2019-04-10T22:21:56.387Z,7.60
2019-04-10T22:24:03.056Z,7.60
2019-04-10T22:26:09.488Z,7.60
2019-04-10T22:28:15.531Z,7.70
2019-04-10T22:30:21.289Z,7.60
2019-04-10T22:32:26.968Z,7.60
2019-04-10T22:34:32.425Z,7.60
2019-04-10T22:36:37.940Z,7.60
2019-04-10T22:38:44.535Z,7.60
2019-04-10T22:40:50.339Z,7.60
2019-04-10T22:42:56.052Z,7.60
2019-04-10T22:45:02.557Z,7.60
2019-04-10T22:47:09.579Z,7.50
2019-04-10T22:49:15.103Z,7.60
2019-04-10T22:51:21.382Z,7.50
2019-04-10T22:53:27.137Z,7.50
2019-04-10T22:55:33.725Z,7.50
2019-04-10T22:57:40.918Z,7.50
2019-04-10T22:59:46.780Z,7.50
2019-04-10T23:02:01.256Z,7.60
2019-04-10T23:03:59.679Z,7.60
2019-04-10T23:06:05.281Z,7.60
2019-04-10T23:08:11.533Z,7.60
2019-04-10T23:10:17.232Z,7.60
2019-04-10T23:12:22.768Z,7.60
2019-04-10T23:14:29.004Z,7.50
2019-04-10T23:16:35.742Z,7.40
2019-04-10T23:18:41.444Z,7.40
2019-04-10T23:20:48.009Z,7.40
2019-04-10T23:22:54.740Z,7.30
2019-04-10T23:25:01.654Z,7.30
2019-04-10T23:27:07.565Z,7.20
2019-04-10T23:29:13.918Z,7.30
2019-04-10T23:31:19.525Z,7.30
2019-04-10T23:33:26.042Z,7.30
2019-04-10T23:35:31.697Z,7.30
2019-04-10T23:37:37.628Z,7.30
2019-04-10T23:39:44.041Z,7.30
2019-04-10T23:41:52.277Z,7.30
2019-04-10T23:43:56.848Z,7.30
2019-04-10T23:46:02.351Z,7.30
2019-04-10T23:48:08.811Z,7.20
2019-04-10T23:50:15.178Z,7.20
2019-04-10T23:52:21.856Z,7.20
2019-04-10T23:54:27.394Z,7.20
2019-04-10T23:56:32.918Z,7.20
2019-04-10T23:58:38.464Z,7.30
